sensor_id;sensor_type;location;lat;lon;timestamp;temperature;humidity
33955;DHT22;20233;50.804;7.126;2023-09-19T00:01:22;17.40;99.90
33955;DHT22;20233;50.804;7.126;2023-09-19T00:03:49;17.40;99.90
33955;DHT22;20233;50.804;7.126;2023-09-19T00:06:14;17.40;99.90
33955;DHT22;20233;50.804;7.126;2023-09-19T00:08:41;17.30;99.90
33955;DHT22;20233;50.804;7.126;2023-09-19T00:11:09;17.30;99.90
33955;DHT22;20233;50.804;7.126;2023-09-19T00:13:36;17.30;99.90
33955;DHT22;20233;50.804;7.126;2023-09-19T00:16:08;17.30;99.90
33955;DHT22;20233;50.804;7.126;2023-09-19T00:18:36;17.30;99.90
33955;DHT22;20233;50.804;7.126;2023-09-19T00:21:01;17.20;99.90
33955;DHT22;20233;50.804;7.126;2023-09-19T00:23:30;17.20;99.90
33955;DHT22;20233;50.804;7.126;2023-09-19T00:25:59;17.10;99.90
33955;DHT22;20233;50.804;7.126;2023-09-19T00:28:24;17.10;99.90
33955;DHT22;20233;50.804;7.126;2023-09-19T00:30:50;17.10;99.90
33955;DHT22;20233;50.804;7.126;2023-09-19T00:33:16;17.10;99.90
33955;DHT22;20233;50.804;7.126;2023-09-19T00:35:49;17.00;99.90
33955;DHT22;20233;50.804;7.126;2023-09-19T00:38:17;17.00;99.90
33955;DHT22;20233;50.804;7.126;2023-09-19T00:40:46;17.00;99.90
33955;DHT22;20233;50.804;7.126;2023-09-19T00:43:12;17.00;99.90
33955;DHT22;20233;50.804;7.126;2023-09-19T00:45:39;17.00;99.90
33955;DHT22;20233;50.804;7.126;2023-09-19T00:48:08;16.90;99.90
33955;DHT22;20233;50.804;7.126;2023-09-19T00:50:35;16.90;99.90
33955;DHT22;20233;50.804;7.126;2023-09-19T00:53:01;17.00;99.90
33955;DHT22;20233;50.804;7.126;2023-09-19T00:55:29;16.90;99.90
33955;DHT22;20233;50.804;7.126;2023-09-19T00:57:56;16.90;99.90
33955;DHT22;20233;50.804;7.126;2023-09-19T01:00:22;16.80;99.90
33955;DHT22;20233;50.804;7.126;2023-09-19T01:02:48;16.90;99.90
33955;DHT22;20233;50.804;7.126;2023-09-19T01:05:14;16.80;99.90
33955;DHT22;20233;50.804;7.126;2023-09-19T01:07:40;16.80;99.90
33955;DHT22;20233;50.804;7.126;2023-09-19T01:10:08;16.80;99.90
33955;DHT22;20233;50.804;7.126;2023-09-19T01:17:57;16.90;99.90
33955;DHT22;20233;50.804;7.126;2023-09-19T01:20:27;16.90;99.90
33955;DHT22;20233;50.804;7.126;2023-09-19T01:23:11;16.90;99.90
33955;DHT22;20233;50.804;7.126;2023-09-19T01:26:03;17.00;99.90
33955;DHT22;20233;50.804;7.126;2023-09-19T01:31:24;17.00;99.90
33955;DHT22;20233;50.804;7.126;2023-09-19T01:33:58;17.00;99.90
33955;DHT22;20233;50.804;7.126;2023-09-19T01:36:26;17.00;99.90
33955;DHT22;20233;50.804;7.126;2023-09-19T01:38:53;17.00;99.90
33955;DHT22;20233;50.804;7.126;2023-09-19T01:41:30;17.10;99.90
33955;DHT22;20233;50.804;7.126;2023-09-19T01:44:00;17.10;99.90
33955;DHT22;20233;50.804;7.126;2023-09-19T01:46:39;17.10;99.90
33955;DHT22;20233;50.804;7.126;2023-09-19T01:49:22;17.10;99.90
33955;DHT22;20233;50.804;7.126;2023-09-19T01:52:00;17.10;99.90
33955;DHT22;20233;50.804;7.126;2023-09-19T01:54:33;17.10;99.90
33955;DHT22;20233;50.804;7.126;2023-09-19T01:59:45;17.10;99.90
33955;DHT22;20233;50.804;7.126;2023-09-19T02:02:14;17.20;99.90
33955;DHT22;20233;50.804;7.126;2023-09-19T02:04:40;17.10;99.90
33955;DHT22;20233;50.804;7.126;2023-09-19T02:07:05;17.10;99.90
33955;DHT22;20233;50.804;7.126;2023-09-19T02:09:31;17.10;99.90
33955;DHT22;20233;50.804;7.126;2023-09-19T02:12:01;17.10;99.90
33955;DHT22;20233;50.804;7.126;2023-09-19T02:14:27;17.10;99.90
33955;DHT22;20233;50.804;7.126;2023-09-19T02:16:55;17.10;99.90
33955;DHT22;20233;50.804;7.126;2023-09-19T02:19:20;17.00;99.90
33955;DHT22;20233;50.804;7.126;2023-09-19T02:21:46;17.10;99.90
33955;DHT22;20233;50.804;7.126;2023-09-19T02:24:13;17.00;99.90
33955;DHT22;20233;50.804;7.126;2023-09-19T02:26:40;17.00;99.90
33955;DHT22;20233;50.804;7.126;2023-09-19T02:29:06;17.00;99.90
33955;DHT22;20233;50.804;7.126;2023-09-19T02:31:31;16.90;99.90
33955;DHT22;20233;50.804;7.126;2023-09-19T02:33:57;16.90;99.90
33955;DHT22;20233;50.804;7.126;2023-09-19T02:36:23;16.90;99.90
33955;DHT22;20233;50.804;7.126;2023-09-19T02:38:49;16.80;99.90
33955;DHT22;20233;50.804;7.126;2023-09-19T02:41:15;16.90;99.90
33955;DHT22;20233;50.804;7.126;2023-09-19T02:43:40;16.80;99.90
33955;DHT22;20233;50.804;7.126;2023-09-19T02:46:09;16.80;99.90
33955;DHT22;20233;50.804;7.126;2023-09-19T02:48:36;16.80;99.90
33955;DHT22;20233;50.804;7.126;2023-09-19T02:51:02;16.70;99.90
33955;DHT22;20233;50.804;7.126;2023-09-19T02:53:30;16.70;99.90
33955;DHT22;20233;50.804;7.126;2023-09-19T02:55:57;16.70;99.90
33955;DHT22;20233;50.804;7.126;2023-09-19T02:58:23;16.60;99.90
33955;DHT22;20233;50.804;7.126;2023-09-19T03:00:50;16.60;99.90
33955;DHT22;20233;50.804;7.126;2023-09-19T03:03:17;16.60;99.90
33955;DHT22;20233;50.804;7.126;2023-09-19T03:05:43;16.60;99.90
33955;DHT22;20233;50.804;7.126;2023-09-19T03:08:15;16.50;99.90
33955;DHT22;20233;50.804;7.126;2023-09-19T03:10:42;16.60;99.90
33955;DHT22;20233;50.804;7.126;2023-09-19T03:13:07;16.50;99.90
33955;DHT22;20233;50.804;7.126;2023-09-19T03:15:35;16.50;99.90
33955;DHT22;20233;50.804;7.126;2023-09-19T03:18:04;16.60;99.90
33955;DHT22;20233;50.804;7.126;2023-09-19T03:20:32;16.50;99.90
33955;DHT22;20233;50.804;7.126;2023-09-19T03:22:57;16.50;99.90
33955;DHT22;20233;50.804;7.126;2023-09-19T03:25:23;16.40;99.90
33955;DHT22;20233;50.804;7.126;2023-09-19T03:27:50;16.50;99.90
33955;DHT22;20233;50.804;7.126;2023-09-19T03:30:15;16.30;99.90
33955;DHT22;20233;50.804;7.126;2023-09-19T03:32:48;16.30;99.90
33955;DHT22;20233;50.804;7.126;2023-09-19T03:35:16;16.40;99.90
33955;DHT22;20233;50.804;7.126;2023-09-19T03:37:42;16.30;99.90
33955;DHT22;20233;50.804;7.126;2023-09-19T03:40:10;16.30;99.90
33955;DHT22;20233;50.804;7.126;2023-09-19T03:42:39;16.30;99.90
33955;DHT22;20233;50.804;7.126;2023-09-19T03:45:07;16.30;99.90
33955;DHT22;20233;50.804;7.126;2023-09-19T03:47:34;16.30;99.90
33955;DHT22;20233;50.804;7.126;2023-09-19T03:50:00;16.10;99.90
33955;DHT22;20233;50.804;7.126;2023-09-19T03:52:25;16.20;99.90
33955;DHT22;20233;50.804;7.126;2023-09-19T03:54:52;16.20;99.90
33955;DHT22;20233;50.804;7.126;2023-09-19T03:57:17;16.20;99.90
33955;DHT22;20233;50.804;7.126;2023-09-19T03:59:46;16.10;99.90
33955;DHT22;20233;50.804;7.126;2023-09-19T04:02:12;16.10;99.90
33955;DHT22;20233;50.804;7.126;2023-09-19T04:04:50;16.10;99.90
33955;DHT22;20233;50.804;7.126;2023-09-19T04:07:17;16.00;99.90
33955;DHT22;20233;50.804;7.126;2023-09-19T04:09:42;16.00;99.90
33955;DHT22;20233;50.804;7.126;2023-09-19T04:12:08;16.00;99.90
33955;DHT22;20233;50.804;7.126;2023-09-19T04:14:37;15.90;99.90
33955;DHT22;20233;50.804;7.126;2023-09-19T04:17:04;15.90;99.90
33955;DHT22;20233;50.804;7.126;2023-09-19T04:19:30;15.90;99.90
33955;DHT22;20233;50.804;7.126;2023-09-19T04:21:56;15.90;99.90
33955;DHT22;20233;50.804;7.126;2023-09-19T04:24:22;15.90;99.90
33955;DHT22;20233;50.804;7.126;2023-09-19T04:26:47;15.80;99.90
33955;DHT22;20233;50.804;7.126;2023-09-19T04:29:13;15.90;99.90
33955;DHT22;20233;50.804;7.126;2023-09-19T04:31:39;15.90;99.90
33955;DHT22;20233;50.804;7.126;2023-09-19T04:34:08;15.80;99.90
33955;DHT22;20233;50.804;7.126;2023-09-19T04:36:33;15.80;99.90
33955;DHT22;20233;50.804;7.126;2023-09-19T04:39:00;15.70;99.90
33955;DHT22;20233;50.804;7.126;2023-09-19T04:41:29;15.80;99.90
33955;DHT22;20233;50.804;7.126;2023-09-19T04:43:55;15.80;99.90
33955;DHT22;20233;50.804;7.126;2023-09-19T04:46:21;15.80;99.90
33955;DHT22;20233;50.804;7.126;2023-09-19T04:48:46;15.70;99.90
33955;DHT22;20233;50.804;7.126;2023-09-19T04:51:12;15.70;99.90
33955;DHT22;20233;50.804;7.126;2023-09-19T04:53:41;15.70;99.90
33955;DHT22;20233;50.804;7.126;2023-09-19T04:56:07;15.70;99.90
33955;DHT22;20233;50.804;7.126;2023-09-19T04:58:33;15.70;99.90
33955;DHT22;20233;50.804;7.126;2023-09-19T05:00:59;15.60;99.90
33955;DHT22;20233;50.804;7.126;2023-09-19T05:03:25;15.60;99.90
33955;DHT22;20233;50.804;7.126;2023-09-19T05:05:52;15.60;99.90
33955;DHT22;20233;50.804;7.126;2023-09-19T05:08:22;15.60;99.90
33955;DHT22;20233;50.804;7.126;2023-09-19T05:10:50;15.60;99.90
33955;DHT22;20233;50.804;7.126;2023-09-19T05:13:16;15.60;99.90
33955;DHT22;20233;50.804;7.126;2023-09-19T05:15:42;15.60;99.90
33955;DHT22;20233;50.804;7.126;2023-09-19T05:18:08;15.50;99.90
33955;DHT22;20233;50.804;7.126;2023-09-19T05:20:35;15.50;99.90
33955;DHT22;20233;50.804;7.126;2023-09-19T05:23:06;15.50;99.90
33955;DHT22;20233;50.804;7.126;2023-09-19T05:25:38;15.50;99.90
33955;DHT22;20233;50.804;7.126;2023-09-19T05:28:08;15.40;99.90
33955;DHT22;20233;50.804;7.126;2023-09-19T05:30:35;15.50;99.90
33955;DHT22;20233;50.804;7.126;2023-09-19T05:33:05;15.50;99.90
33955;DHT22;20233;50.804;7.126;2023-09-19T05:35:34;15.50;99.90
33955;DHT22;20233;50.804;7.126;2023-09-19T05:38:03;15.50;99.90
33955;DHT22;20233;50.804;7.126;2023-09-19T05:40:32;15.50;99.90
33955;DHT22;20233;50.804;7.126;2023-09-19T05:43:01;15.60;99.90
33955;DHT22;20233;50.804;7.126;2023-09-19T05:45:32;15.50;99.90
33955;DHT22;20233;50.804;7.126;2023-09-19T05:48:10;15.50;99.90
33955;DHT22;20233;50.804;7.126;2023-09-19T05:50:40;15.50;99.90
33955;DHT22;20233;50.804;7.126;2023-09-19T05:53:06;15.60;99.90
33955;DHT22;20233;50.804;7.126;2023-09-19T05:55:33;15.60;99.90
33955;DHT22;20233;50.804;7.126;2023-09-19T05:58:00;15.60;99.90
33955;DHT22;20233;50.804;7.126;2023-09-19T06:00:27;15.60;99.90
33955;DHT22;20233;50.804;7.126;2023-09-19T06:02:56;15.60;99.90
33955;DHT22;20233;50.804;7.126;2023-09-19T06:05:27;15.60;99.90
33955;DHT22;20233;50.804;7.126;2023-09-19T06:07:55;15.70;99.90
33955;DHT22;20233;50.804;7.126;2023-09-19T06:10:27;15.60;99.90
33955;DHT22;20233;50.804;7.126;2023-09-19T06:12:57;15.70;99.90
33955;DHT22;20233;50.804;7.126;2023-09-19T06:15:24;15.70;99.90
33955;DHT22;20233;50.804;7.126;2023-09-19T06:17:53;15.70;99.90
33955;DHT22;20233;50.804;7.126;2023-09-19T06:20:22;15.70;99.90
33955;DHT22;20233;50.804;7.126;2023-09-19T06:22:49;15.80;99.90
33955;DHT22;20233;50.804;7.126;2023-09-19T06:25:16;15.80;99.90
33955;DHT22;20233;50.804;7.126;2023-09-19T06:27:47;15.80;99.90
33955;DHT22;20233;50.804;7.126;2023-09-19T06:30:14;15.80;99.90
33955;DHT22;20233;50.804;7.126;2023-09-19T06:32:41;15.80;99.90
33955;DHT22;20233;50.804;7.126;2023-09-19T06:35:15;15.90;99.90
33955;DHT22;20233;50.804;7.126;2023-09-19T06:37:43;15.90;99.90
33955;DHT22;20233;50.804;7.126;2023-09-19T06:40:14;15.90;99.90
33955;DHT22;20233;50.804;7.126;2023-09-19T06:42:46;15.90;99.90
33955;DHT22;20233;50.804;7.126;2023-09-19T06:45:14;16.00;99.90
33955;DHT22;20233;50.804;7.126;2023-09-19T06:47:51;16.00;99.90
33955;DHT22;20233;50.804;7.126;2023-09-19T06:50:21;16.00;99.90
33955;DHT22;20233;50.804;7.126;2023-09-19T06:52:53;16.00;99.90
33955;DHT22;20233;50.804;7.126;2023-09-19T06:55:22;16.10;99.90
33955;DHT22;20233;50.804;7.126;2023-09-19T06:57:54;16.10;99.90
33955;DHT22;20233;50.804;7.126;2023-09-19T07:00:21;16.10;99.90
33955;DHT22;20233;50.804;7.126;2023-09-19T07:03:06;16.20;99.90
33955;DHT22;20233;50.804;7.126;2023-09-19T07:05:39;16.20;99.90
33955;DHT22;20233;50.804;7.126;2023-09-19T07:08:07;16.30;99.90
33955;DHT22;20233;50.804;7.126;2023-09-19T07:10:35;16.30;99.90
33955;DHT22;20233;50.804;7.126;2023-09-19T07:13:10;16.40;99.90
33955;DHT22;20233;50.804;7.126;2023-09-19T07:15:38;16.40;99.90
33955;DHT22;20233;50.804;7.126;2023-09-19T07:18:13;16.50;99.90
33955;DHT22;20233;50.804;7.126;2023-09-19T07:20:40;16.50;99.90
33955;DHT22;20233;50.804;7.126;2023-09-19T07:23:12;16.60;99.90
33955;DHT22;20233;50.804;7.126;2023-09-19T07:25:41;16.70;99.90
33955;DHT22;20233;50.804;7.126;2023-09-19T07:28:07;16.70;99.90
33955;DHT22;20233;50.804;7.126;2023-09-19T07:30:40;16.80;99.90
33955;DHT22;20233;50.804;7.126;2023-09-19T07:33:07;16.80;99.90
33955;DHT22;20233;50.804;7.126;2023-09-19T07:35:38;16.90;99.90
33955;DHT22;20233;50.804;7.126;2023-09-19T07:38:08;16.90;99.90
33955;DHT22;20233;50.804;7.126;2023-09-19T07:40:37;16.90;99.90
33955;DHT22;20233;50.804;7.126;2023-09-19T07:43:04;16.90;99.90
33955;DHT22;20233;50.804;7.126;2023-09-19T07:45:36;17.00;99.90
33955;DHT22;20233;50.804;7.126;2023-09-19T07:48:08;17.00;99.90
33955;DHT22;20233;50.804;7.126;2023-09-19T07:50:40;17.10;99.90
33955;DHT22;20233;50.804;7.126;2023-09-19T07:53:08;17.10;99.90
33955;DHT22;20233;50.804;7.126;2023-09-19T07:55:35;17.20;99.90
33955;DHT22;20233;50.804;7.126;2023-09-19T07:58:02;17.20;99.90
33955;DHT22;20233;50.804;7.126;2023-09-19T08:00:31;17.20;99.90
33955;DHT22;20233;50.804;7.126;2023-09-19T08:03:02;17.30;99.90
33955;DHT22;20233;50.804;7.126;2023-09-19T08:05:30;17.40;99.90
33955;DHT22;20233;50.804;7.126;2023-09-19T08:08:00;17.50;99.90
33955;DHT22;20233;50.804;7.126;2023-09-19T08:10:27;17.50;99.90
33955;DHT22;20233;50.804;7.126;2023-09-19T08:13:01;17.50;99.90
33955;DHT22;20233;50.804;7.126;2023-09-19T08:15:28;17.60;99.90
33955;DHT22;20233;50.804;7.126;2023-09-19T08:17:55;17.60;99.90
33955;DHT22;20233;50.804;7.126;2023-09-19T08:20:22;17.60;99.90
33955;DHT22;20233;50.804;7.126;2023-09-19T08:22:53;17.70;99.90
33955;DHT22;20233;50.804;7.126;2023-09-19T08:25:23;17.80;99.90
33955;DHT22;20233;50.804;7.126;2023-09-19T08:27:55;17.80;99.90
33955;DHT22;20233;50.804;7.126;2023-09-19T08:30:24;17.80;99.90
33955;DHT22;20233;50.804;7.126;2023-09-19T08:33:00;17.90;99.90
33955;DHT22;20233;50.804;7.126;2023-09-19T08:35:28;17.90;99.90
33955;DHT22;20233;50.804;7.126;2023-09-19T08:37:55;18.00;99.90
33955;DHT22;20233;50.804;7.126;2023-09-19T08:40:23;18.10;99.90
33955;DHT22;20233;50.804;7.126;2023-09-19T08:42:56;18.20;99.90
33955;DHT22;20233;50.804;7.126;2023-09-19T08:45:24;18.20;99.90
33955;DHT22;20233;50.804;7.126;2023-09-19T08:48:33;18.20;99.90
33955;DHT22;20233;50.804;7.126;2023-09-19T08:51:19;18.30;99.90
33955;DHT22;20233;50.804;7.126;2023-09-19T08:54:07;18.40;99.90
33955;DHT22;20233;50.804;7.126;2023-09-19T08:56:35;18.50;99.90
33955;DHT22;20233;50.804;7.126;2023-09-19T08:59:06;18.50;99.90
33955;DHT22;20233;50.804;7.126;2023-09-19T09:01:38;18.60;99.90
33955;DHT22;20233;50.804;7.126;2023-09-19T09:04:09;18.60;99.90
33955;DHT22;20233;50.804;7.126;2023-09-19T09:06:39;18.60;99.90
33955;DHT22;20233;50.804;7.126;2023-09-19T09:09:07;18.60;99.90
33955;DHT22;20233;50.804;7.126;2023-09-19T09:11:36;18.80;99.90
33955;DHT22;20233;50.804;7.126;2023-09-19T09:14:06;18.90;99.90
33955;DHT22;20233;50.804;7.126;2023-09-19T09:16:33;18.90;99.90
33955;DHT22;20233;50.804;7.126;2023-09-19T09:19:00;18.90;99.90
33955;DHT22;20233;50.804;7.126;2023-09-19T09:21:27;18.90;99.90
33955;DHT22;20233;50.804;7.126;2023-09-19T09:23:58;19.00;99.90
33955;DHT22;20233;50.804;7.126;2023-09-19T09:26:42;19.00;99.90
33955;DHT22;20233;50.804;7.126;2023-09-19T09:29:13;18.80;99.90
33955;DHT22;20233;50.804;7.126;2023-09-19T09:31:39;18.90;99.90
33955;DHT22;20233;50.804;7.126;2023-09-19T09:34:07;18.90;99.90
33955;DHT22;20233;50.804;7.126;2023-09-19T09:36:39;19.00;99.90
33955;DHT22;20233;50.804;7.126;2023-09-19T09:39:07;19.00;99.90
33955;DHT22;20233;50.804;7.126;2023-09-19T09:41:44;19.00;99.90
33955;DHT22;20233;50.804;7.126;2023-09-19T09:44:16;19.10;99.90
33955;DHT22;20233;50.804;7.126;2023-09-19T09:46:44;19.20;99.90
33955;DHT22;20233;50.804;7.126;2023-09-19T09:49:24;19.20;99.90
33955;DHT22;20233;50.804;7.126;2023-09-19T09:52:02;19.20;99.90
33955;DHT22;20233;50.804;7.126;2023-09-19T09:54:59;19.30;99.90
33955;DHT22;20233;50.804;7.126;2023-09-19T09:57:31;19.40;99.90
33955;DHT22;20233;50.804;7.126;2023-09-19T10:00:00;19.50;99.90
33955;DHT22;20233;50.804;7.126;2023-09-19T10:02:46;19.60;99.90
33955;DHT22;20233;50.804;7.126;2023-09-19T10:05:17;19.50;99.90
33955;DHT22;20233;50.804;7.126;2023-09-19T10:07:47;19.60;99.90
33955;DHT22;20233;50.804;7.126;2023-09-19T10:10:33;19.50;99.90
33955;DHT22;20233;50.804;7.126;2023-09-19T10:13:10;19.70;99.90
33955;DHT22;20233;50.804;7.126;2023-09-19T10:15:59;19.80;99.90
33955;DHT22;20233;50.804;7.126;2023-09-19T10:18:32;19.90;99.90
33955;DHT22;20233;50.804;7.126;2023-09-19T10:21:05;19.90;99.90
33955;DHT22;20233;50.804;7.126;2023-09-19T10:23:35;20.10;99.90
33955;DHT22;20233;50.804;7.126;2023-09-19T10:26:06;20.20;99.90
33955;DHT22;20233;50.804;7.126;2023-09-19T10:28:36;20.30;99.90
33955;DHT22;20233;50.804;7.126;2023-09-19T10:31:05;20.30;99.90
33955;DHT22;20233;50.804;7.126;2023-09-19T10:33:38;20.30;99.90
33955;DHT22;20233;50.804;7.126;2023-09-19T10:36:08;20.40;99.90
33955;DHT22;20233;50.804;7.126;2023-09-19T10:41:08;20.70;99.90
33955;DHT22;20233;50.804;7.126;2023-09-19T10:46:08;20.80;99.90
33955;DHT22;20233;50.804;7.126;2023-09-19T10:48:38;21.00;99.90
33955;DHT22;20233;50.804;7.126;2023-09-19T10:54:10;21.20;99.90
33955;DHT22;20233;50.804;7.126;2023-09-19T10:56:51;21.20;99.90
33955;DHT22;20233;50.804;7.126;2023-09-19T10:59:20;21.20;99.90
33955;DHT22;20233;50.804;7.126;2023-09-19T11:01:48;21.30;99.90
33955;DHT22;20233;50.804;7.126;2023-09-19T11:04:32;21.40;99.90
33955;DHT22;20233;50.804;7.126;2023-09-19T11:07:10;21.40;99.90
33955;DHT22;20233;50.804;7.126;2023-09-19T11:09:44;21.40;99.90
33955;DHT22;20233;50.804;7.126;2023-09-19T11:15:08;21.40;99.90
33955;DHT22;20233;50.804;7.126;2023-09-19T11:17:41;21.50;99.90
33955;DHT22;20233;50.804;7.126;2023-09-19T11:30:39;21.60;99.90
33955;DHT22;20233;50.804;7.126;2023-09-19T11:33:18;21.70;99.90
33955;DHT22;20233;50.804;7.126;2023-09-19T11:46:54;22.00;99.90
33955;DHT22;20233;50.804;7.126;2023-09-19T11:49:32;22.10;99.90
33955;DHT22;20233;50.804;7.126;2023-09-19T11:52:01;22.20;99.90
33955;DHT22;20233;50.804;7.126;2023-09-19T11:54:31;22.40;99.90
33955;DHT22;20233;50.804;7.126;2023-09-19T11:56:59;22.40;99.90
33955;DHT22;20233;50.804;7.126;2023-09-19T11:59:30;22.50;99.90
33955;DHT22;20233;50.804;7.126;2023-09-19T12:02:04;22.50;99.90
33955;DHT22;20233;50.804;7.126;2023-09-19T12:04:41;22.60;99.90
33955;DHT22;20233;50.804;7.126;2023-09-19T12:07:13;22.70;99.90
33955;DHT22;20233;50.804;7.126;2023-09-19T12:09:43;22.60;99.90
33955;DHT22;20233;50.804;7.126;2023-09-19T12:12:19;22.70;99.90
33955;DHT22;20233;50.804;7.126;2023-09-19T12:14:50;22.60;99.90
33955;DHT22;20233;50.804;7.126;2023-09-19T12:17:17;22.70;99.90
33955;DHT22;20233;50.804;7.126;2023-09-19T12:19:55;22.80;99.90
33955;DHT22;20233;50.804;7.126;2023-09-19T12:22:22;22.80;99.90
33955;DHT22;20233;50.804;7.126;2023-09-19T12:24:50;22.70;99.90
33955;DHT22;20233;50.804;7.126;2023-09-19T12:27:20;22.70;99.90
33955;DHT22;20233;50.804;7.126;2023-09-19T12:29:49;22.70;99.90
33955;DHT22;20233;50.804;7.126;2023-09-19T12:32:16;22.80;99.90
33955;DHT22;20233;50.804;7.126;2023-09-19T12:34:51;22.80;99.90
33955;DHT22;20233;50.804;7.126;2023-09-19T12:37:19;22.90;99.90
33955;DHT22;20233;50.804;7.126;2023-09-19T12:39:51;23.00;99.90
33955;DHT22;20233;50.804;7.126;2023-09-19T12:42:23;22.90;99.90
33955;DHT22;20233;50.804;7.126;2023-09-19T12:44:51;22.90;99.90
33955;DHT22;20233;50.804;7.126;2023-09-19T12:47:27;22.90;99.90
33955;DHT22;20233;50.804;7.126;2023-09-19T12:50:11;23.00;99.90
33955;DHT22;20233;50.804;7.126;2023-09-19T12:52:46;22.80;99.90
33955;DHT22;20233;50.804;7.126;2023-09-19T12:55:40;22.90;99.90
33955;DHT22;20233;50.804;7.126;2023-09-19T12:58:12;23.00;99.90
33955;DHT22;20233;50.804;7.126;2023-09-19T13:00:40;23.10;99.90
33955;DHT22;20233;50.804;7.126;2023-09-19T13:03:24;23.00;99.90
33955;DHT22;20233;50.804;7.126;2023-09-19T13:06:01;23.00;99.90
33955;DHT22;20233;50.804;7.126;2023-09-19T13:08:38;23.10;99.90
33955;DHT22;20233;50.804;7.126;2023-09-19T13:11:13;23.20;99.90
33955;DHT22;20233;50.804;7.126;2023-09-19T13:13:51;23.20;99.90
33955;DHT22;20233;50.804;7.126;2023-09-19T13:17:03;23.40;99.90
33955;DHT22;20233;50.804;7.126;2023-09-19T13:19:52;23.40;99.90
33955;DHT22;20233;50.804;7.126;2023-09-19T13:22:42;23.30;99.90
33955;DHT22;20233;50.804;7.126;2023-09-19T13:25:21;23.50;99.90
33955;DHT22;20233;50.804;7.126;2023-09-19T13:27:48;23.40;99.90
33955;DHT22;20233;50.804;7.126;2023-09-19T13:30:25;23.40;99.90
33955;DHT22;20233;50.804;7.126;2023-09-19T13:33:03;23.50;99.90
33955;DHT22;20233;50.804;7.126;2023-09-19T13:35:32;23.50;99.90
33955;DHT22;20233;50.804;7.126;2023-09-19T13:37:59;23.50;99.90
33955;DHT22;20233;50.804;7.126;2023-09-19T13:40:27;23.50;99.90
33955;DHT22;20233;50.804;7.126;2023-09-19T13:42:57;23.40;99.90
33955;DHT22;20233;50.804;7.126;2023-09-19T13:45:24;23.50;99.90
33955;DHT22;20233;50.804;7.126;2023-09-19T13:47:50;23.60;99.90
33955;DHT22;20233;50.804;7.126;2023-09-19T13:50:18;23.50;99.90
33955;DHT22;20233;50.804;7.126;2023-09-19T13:52:50;23.40;99.90
33955;DHT22;20233;50.804;7.126;2023-09-19T13:55:17;23.40;99.90
33955;DHT22;20233;50.804;7.126;2023-09-19T13:57:50;23.40;99.90
33955;DHT22;20233;50.804;7.126;2023-09-19T14:00:22;23.30;99.90
33955;DHT22;20233;50.804;7.126;2023-09-19T14:02:48;23.30;99.90
33955;DHT22;20233;50.804;7.126;2023-09-19T14:05:17;23.40;99.90
33955;DHT22;20233;50.804;7.126;2023-09-19T14:07:45;23.40;99.90
33955;DHT22;20233;50.804;7.126;2023-09-19T14:10:13;23.50;99.90
33955;DHT22;20233;50.804;7.126;2023-09-19T14:12:40;23.60;99.90
33955;DHT22;20233;50.804;7.126;2023-09-19T14:15:07;23.60;99.90
33955;DHT22;20233;50.804;7.126;2023-09-19T14:17:35;23.60;99.90
33955;DHT22;20233;50.804;7.126;2023-09-19T14:20:03;23.60;99.90
33955;DHT22;20233;50.804;7.126;2023-09-19T14:22:32;23.40;99.90
33955;DHT22;20233;50.804;7.126;2023-09-19T14:24:59;23.50;99.90
33955;DHT22;20233;50.804;7.126;2023-09-19T14:27:26;23.60;99.90
33955;DHT22;20233;50.804;7.126;2023-09-19T14:29:53;23.60;99.90
33955;DHT22;20233;50.804;7.126;2023-09-19T14:32:21;23.70;99.90
33955;DHT22;20233;50.804;7.126;2023-09-19T14:34:47;23.70;99.90
33955;DHT22;20233;50.804;7.126;2023-09-19T14:37:13;23.50;99.90
33955;DHT22;20233;50.804;7.126;2023-09-19T14:39:42;23.60;99.90
33955;DHT22;20233;50.804;7.126;2023-09-19T14:42:11;23.60;99.90
33955;DHT22;20233;50.804;7.126;2023-09-19T14:44:38;23.60;99.90
33955;DHT22;20233;50.804;7.126;2023-09-19T14:47:05;23.50;99.90
33955;DHT22;20233;50.804;7.126;2023-09-19T14:49:36;23.40;99.90
33955;DHT22;20233;50.804;7.126;2023-09-19T14:52:03;23.40;99.90
33955;DHT22;20233;50.804;7.126;2023-09-19T14:54:30;23.30;99.90
33955;DHT22;20233;50.804;7.126;2023-09-19T14:56:59;23.40;99.90
33955;DHT22;20233;50.804;7.126;2023-09-19T14:59:35;23.40;99.90
33955;DHT22;20233;50.804;7.126;2023-09-19T15:02:05;23.40;99.90
33955;DHT22;20233;50.804;7.126;2023-09-19T15:04:32;23.30;99.90
33955;DHT22;20233;50.804;7.126;2023-09-19T15:06:59;23.20;99.90
33955;DHT22;20233;50.804;7.126;2023-09-19T15:09:26;23.20;99.90
33955;DHT22;20233;50.804;7.126;2023-09-19T15:11:53;23.20;99.90
33955;DHT22;20233;50.804;7.126;2023-09-19T15:14:21;23.20;99.90
33955;DHT22;20233;50.804;7.126;2023-09-19T15:16:48;23.30;99.90
33955;DHT22;20233;50.804;7.126;2023-09-19T15:19:14;23.30;99.90
33955;DHT22;20233;50.804;7.126;2023-09-19T15:21:41;23.30;99.90
33955;DHT22;20233;50.804;7.126;2023-09-19T15:24:08;23.20;99.90
33955;DHT22;20233;50.804;7.126;2023-09-19T15:26:38;23.20;99.90
33955;DHT22;20233;50.804;7.126;2023-09-19T15:29:06;23.20;99.90
33955;DHT22;20233;50.804;7.126;2023-09-19T15:31:33;23.00;99.90
33955;DHT22;20233;50.804;7.126;2023-09-19T15:34:03;22.80;99.90
33955;DHT22;20233;50.804;7.126;2023-09-19T15:36:29;22.70;99.90
33955;DHT22;20233;50.804;7.126;2023-09-19T15:41:35;22.60;99.90
33955;DHT22;20233;50.804;7.126;2023-09-19T15:44:12;22.60;99.90
33955;DHT22;20233;50.804;7.126;2023-09-19T15:46:39;22.60;99.90
33955;DHT22;20233;50.804;7.126;2023-09-19T15:54:07;22.30;99.90
33955;DHT22;20233;50.804;7.126;2023-09-19T15:56:33;22.30;99.90
33955;DHT22;20233;50.804;7.126;2023-09-19T15:59:03;22.30;99.90
33955;DHT22;20233;50.804;7.126;2023-09-19T16:01:31;22.30;99.90
33955;DHT22;20233;50.804;7.126;2023-09-19T16:03:58;22.30;99.90
33955;DHT22;20233;50.804;7.126;2023-09-19T16:06:29;22.20;99.90
33955;DHT22;20233;50.804;7.126;2023-09-19T16:08:59;22.30;99.90
33955;DHT22;20233;50.804;7.126;2023-09-19T16:11:29;22.30;99.90
33955;DHT22;20233;50.804;7.126;2023-09-19T16:13:56;22.30;99.90
33955;DHT22;20233;50.804;7.126;2023-09-19T16:16:25;22.20;99.90
33955;DHT22;20233;50.804;7.126;2023-09-19T16:18:59;22.20;99.90
33955;DHT22;20233;50.804;7.126;2023-09-19T16:21:31;22.20;99.90
33955;DHT22;20233;50.804;7.126;2023-09-19T16:23:58;22.10;99.90
33955;DHT22;20233;50.804;7.126;2023-09-19T16:26:25;22.20;99.90
33955;DHT22;20233;50.804;7.126;2023-09-19T16:28:53;22.20;99.90
33955;DHT22;20233;50.804;7.126;2023-09-19T16:31:20;22.30;99.90
33955;DHT22;20233;50.804;7.126;2023-09-19T16:33:48;22.20;99.90
33955;DHT22;20233;50.804;7.126;2023-09-19T16:36:18;22.10;99.90
33955;DHT22;20233;50.804;7.126;2023-09-19T16:38:48;22.20;99.90